OOCL Kaohsiung — 9V9830 — position and weather

sailwx.info

Track history (hours):
 
Tides and Currents Weather Stations Pressure Air Temp Water Temp Dewpoint Dewpoint Depression Visibility Wind Speed Wind Dir Waves Ship Positions

OOCL Kaohsiung

Last reported at 2016-May-20 02:05 UTC. Time now 2016-May-29 05:53 UTC.
Position N 01°59' E 102°14'.
Warning: this ship's position is 9 days out of date.

Length 280 m; draft 13.3 m.

Type: Cargo ship. MMSI: 566389000.

Date/timePositionNaut miles runAvg speedWind from/ knotsBaromVisibWave heightAir tempDewpointWater temp
2016-May-20 02:05N 01°59' E 102°14'1018.8
2016-May-20 01:33N 01°53' E 102°22'1818.4
2016-May-20 00:33N 01°46' E 102°39'6219.1
2016-May-19 21:20N 01°13' E 103°31'1418.4
2016-May-19 20:34N 01°08' E 103°44'10 9.7
2016-May-19 19:33N 01°14' E 103°52'3 2.6
2016-May-19 18:33N 01°16' E 103°51'0 0.0
2016-May-19 17:33N 01°16' E 103°51'0 0.0
2016-May-19 16:33N 01°16' E 103°51'0 0.0
2016-May-19 15:33N 01°16' E 103°51'0 0.0
2016-May-19 14:33N 01°16' E 103°51'0 0.0
2016-May-19 13:33N 01°16' E 103°51'0 0.0
2016-May-19 12:33N 01°16' E 103°51'0 0.0
2016-May-19 11:33N 01°16' E 103°51'0 0.0
2016-May-19 10:33N 01°16' E 103°51'0 0.0
2016-May-19 09:33N 01°16' E 103°51'0 0.0
2016-May-19 08:33N 01°16' E 103°51'0 0.0
2016-May-19 07:33N 01°16' E 103°51'0 0.0
2016-May-19 06:33N 01°16' E 103°51'0 0.0
2016-May-19 05:33N 01°16' E 103°51'0 0.0
2016-May-19 04:33N 01°16' E 103°51'0 0.0
2016-May-19 03:33N 01°16' E 103°51'0 0.0
2016-May-19 02:33N 01°16' E 103°51'0 0.0
2016-May-19 01:33N 01°16' E 103°51'0 0.0
2016-May-19 00:33N 01°16' E 103°51'1 1.0
2016-May-18 23:33N 01°15' E 103°51'7 6.7
2016-May-18 22:33N 01°15' E 103°58'2311.6
2016-May-18 20:32N 01°20' E 104°21'  
2016-May-13 12:09N 01°15' E 104°13'1016.3
2016-May-13 11:33N 01°15' E 104°03'1110.9
2016-May-13 10:33N 01°14' E 103°52'2 2.1
2016-May-13 09:33N 01°16' E 103°51'0 0.0
2016-May-13 08:33N 01°16' E 103°51'0 0.0
2016-May-13 07:24N 01°16' E 103°51'0 0.0
2016-May-13 06:33N 01°16' E 103°51'0 0.0
2016-May-13 05:30N 01°16' E 103°51'0 0.0
2016-May-13 04:33N 01°16' E 103°51'0 0.0
2016-May-13 03:33N 01°16' E 103°51'0 0.0
2016-May-13 02:33N 01°16' E 103°51'0 0.0
2016-May-13 01:33N 01°16' E 103°51'0 0.0
2016-May-13 00:33N 01°16' E 103°51'0 0.0
2016-May-12 23:27N 01°16' E 103°51'0 0.0
2016-May-12 22:33N 01°16' E 103°51'0 0.0
2016-May-12 21:33N 01°16' E 103°51'0 0.0
2016-May-12 20:33N 01°16' E 103°51'0 0.0
2016-May-12 19:33N 01°16' E 103°51'0 0.0
2016-May-12 18:33N 01°16' E 103°51'0 0.0
2016-May-12 17:33N 01°16' E 103°51'0 0.0
2016-May-12 16:33N 01°16' E 103°51'0 0.0
2016-May-12 15:33N 01°16' E 103°51'0 0.0
2016-May-12 14:33N 01°16' E 103°51'0 0.0
2016-May-12 13:34N 01°16' E 103°51'2 1.6
2016-May-12 12:34N 01°15' E 103°52'6 5.6
2016-May-12 11:33N 01°10' E 103°49'1111.5
2016-May-12 10:34N 01°03' E 103°40'1111.1
2016-May-12 09:33N 01°08' E 103°30'5914.9
2016-May-12 05:33N 01°41' E 102°40'1918.7
2016-May-12 04:33N 01°49' E 102°23'  
Track history (hours):
 
Tides and Currents Weather Stations Pressure Air Temp Water Temp Dewpoint Dewpoint Depression Visibility Wind Speed Wind Dir Waves Ship Positions

OOCL Kaohsiung

Last reported at 2016-May-20 02:05 UTC. Time now 2016-May-29 05:53 UTC.
Position N 01°59' E 102°14'.
Warning: this ship's position is 9 days out of date.

Length 280 m; draft 13.3 m.

Type: Cargo ship. MMSI: 566389000.

Date/timePositionNaut miles runAvg speedWind from/ knotsBaromVisibWave heightAir tempDewpointWater temp
2016-May-20 02:05N 01°59' E 102°14'1018.8
2016-May-20 01:33N 01°53' E 102°22'1818.4
2016-May-20 00:33N 01°46' E 102°39'6219.1
2016-May-19 21:20N 01°13' E 103°31'1418.4
2016-May-19 20:34N 01°08' E 103°44'10 9.7
2016-May-19 19:33N 01°14' E 103°52'3 2.6
2016-May-19 18:33N 01°16' E 103°51'0 0.0
2016-May-19 17:33N 01°16' E 103°51'0 0.0
2016-May-19 16:33N 01°16' E 103°51'0 0.0
2016-May-19 15:33N 01°16' E 103°51'0 0.0
2016-May-19 14:33N 01°16' E 103°51'0 0.0
2016-May-19 13:33N 01°16' E 103°51'0 0.0
2016-May-19 12:33N 01°16' E 103°51'0 0.0
2016-May-19 11:33N 01°16' E 103°51'0 0.0
2016-May-19 10:33N 01°16' E 103°51'0 0.0
2016-May-19 09:33N 01°16' E 103°51'0 0.0
2016-May-19 08:33N 01°16' E 103°51'0 0.0
2016-May-19 07:33N 01°16' E 103°51'0 0.0
2016-May-19 06:33N 01°16' E 103°51'0 0.0
2016-May-19 05:33N 01°16' E 103°51'0 0.0
2016-May-19 04:33N 01°16' E 103°51'0 0.0
2016-May-19 03:33N 01°16' E 103°51'0 0.0
2016-May-19 02:33N 01°16' E 103°51'0 0.0
2016-May-19 01:33N 01°16' E 103°51'0 0.0
2016-May-19 00:33N 01°16' E 103°51'1 1.0
2016-May-18 23:33N 01°15' E 103°51'7 6.7
2016-May-18 22:33N 01°15' E 103°58'2311.6
2016-May-18 20:32N 01°20' E 104°21'  
2016-May-13 12:09N 01°15' E 104°13'1016.3
2016-May-13 11:33N 01°15' E 104°03'1110.9
2016-May-13 10:33N 01°14' E 103°52'2 2.1
2016-May-13 09:33N 01°16' E 103°51'0 0.0
2016-May-13 08:33N 01°16' E 103°51'0 0.0
2016-May-13 07:24N 01°16' E 103°51'0 0.0
2016-May-13 06:33N 01°16' E 103°51'0 0.0
2016-May-13 05:30N 01°16' E 103°51'0 0.0
2016-May-13 04:33N 01°16' E 103°51'0 0.0
2016-May-13 03:33N 01°16' E 103°51'0 0.0
2016-May-13 02:33N 01°16' E 103°51'0 0.0
2016-May-13 01:33N 01°16' E 103°51'0 0.0
2016-May-13 00:33N 01°16' E 103°51'0 0.0
2016-May-12 23:27N 01°16' E 103°51'0 0.0
2016-May-12 22:33N 01°16' E 103°51'0 0.0
2016-May-12 21:33N 01°16' E 103°51'0 0.0
2016-May-12 20:33N 01°16' E 103°51'0 0.0
2016-May-12 19:33N 01°16' E 103°51'0 0.0
2016-May-12 18:33N 01°16' E 103°51'0 0.0
2016-May-12 17:33N 01°16' E 103°51'0 0.0
2016-May-12 16:33N 01°16' E 103°51'0 0.0
2016-May-12 15:33N 01°16' E 103°51'0 0.0
2016-May-12 14:33N 01°16' E 103°51'0 0.0
2016-May-12 13:34N 01°16' E 103°51'2 1.6
2016-May-12 12:34N 01°15' E 103°52'6 5.6
2016-May-12 11:33N 01°10' E 103°49'1111.5
2016-May-12 10:34N 01°03' E 103°40'1111.1
2016-May-12 09:33N 01°08' E 103°30'5914.9
2016-May-12 05:33N 01°41' E 102°40'1918.7
2016-May-12 04:33N 01°49' E 102°23'  

Dump ship's entire track history